Time;durP1;ratioP1;P1;durP2;ratioP2;P2;SDS_P1;SDS_P2;PMS_P1;PMS_P2;Temp;Humidity;BMP_temperature;BMP_pressure;BME280_temperature;BME280_humidity;BME280_pressure;Samples;Min_cycle;Max_cycle;Signal;HPM_P1;HPM_P2
2024/02/07 00:02:07;;;;;;;5.20;3.17;;;17.10;62.70;;;;;;5083147;28;20449;-79
2024/02/07 00:04:36;;;;;;;5.60;3.00;;;17.10;63.20;;;;;;5076987;28;20442;-80
2024/02/07 00:07:06;;;;;;;4.67;2.90;;;17.10;62.90;;;;;;5083540;28;20461;-80
2024/02/07 00:09:34;;;;;;;6.33;2.83;;;17.10;62.80;;;;;;5075662;28;20940;-79
2024/02/07 00:12:03;;;;;;;4.10;2.80;;;17.00;63.10;;;;;;5079213;28;20481;-79
2024/02/07 00:14:31;;;;;;;6.37;2.80;;;17.10;63.10;;;;;;5080032;28;20479;-78
2024/02/07 00:16:59;;;;;;;3.83;2.60;;;17.00;62.60;;;;;;5078698;28;20488;-78
2024/02/07 00:19:26;;;;;;;5.80;2.77;;;17.00;62.70;;;;;;5075857;28;20437;-78
2024/02/07 00:21:55;;;;;;;4.43;3.03;;;17.00;62.80;;;;;;5077439;28;20517;-78
2024/02/07 00:24:24;;;;;;;12.33;7.80;;;17.00;62.70;;;;;;5079927;28;20436;-78
2024/02/07 00:26:52;;;;;;;7.37;4.50;;;17.00;62.90;;;;;;5078245;28;20449;-80
2024/02/07 00:29:20;;;;;;;10.87;4.40;;;17.00;63.10;;;;;;5068293;28;20470;-80
2024/02/07 00:31:48;;;;;;;6.47;4.53;;;17.00;62.70;;;;;;5065656;28;20897;-79
2024/02/07 00:34:16;;;;;;;9.77;5.80;;;17.00;63.00;;;;;;5071765;28;20446;-79
2024/02/07 00:36:44;;;;;;;8.40;5.57;;;17.00;63.00;;;;;;5070827;28;20461;-79
2024/02/07 00:39:12;;;;;;;8.23;5.20;;;17.00;62.60;;;;;;5078720;28;20988;-79
2024/02/07 00:41:41;;;;;;;9.33;5.47;;;17.00;63.20;;;;;;5077038;28;20472;-79
2024/02/07 00:44:09;;;;;;;8.57;5.40;;;17.00;63.00;;;;;;5080935;28;20460;-80
2024/02/07 00:46:39;;;;;;;9.37;6.17;;;17.00;63.20;;;;;;5082128;28;20450;-79
2024/02/07 00:49:12;;;;;;;12.80;5.43;;;17.00;63.10;;;;;;5080561;28;20462;-80
2024/02/07 00:51:40;;;;;;;9.20;6.23;;;17.00;62.90;;;;;;5078956;28;20528;-80
2024/02/07 00:54:08;;;;;;;8.67;6.00;;;17.00;63.30;;;;;;5068779;28;20476;-80
2024/02/07 00:56:37;;;;;;;8.17;5.10;;;17.00;63.30;;;;;;5067943;28;20459;-80
2024/02/07 00:59:06;;;;;;;10.27;6.30;;;17.00;63.10;;;;;;5070378;28;20493;-80
2024/02/07 01:01:34;;;;;;;10.47;6.30;;;17.00;63.40;;;;;;5073305;28;20458;-80
2024/02/07 01:04:02;;;;;;;11.40;6.80;;;17.00;63.00;;;;;;5075202;28;20502;-80
2024/02/07 01:06:31;;;;;;;10.87;6.03;;;16.90;62.90;;;;;;5077081;28;20478;-80
2024/02/07 01:08:59;;;;;;;10.00;6.20;;;16.90;63.20;;;;;;5084534;28;20476;-79
2024/02/07 01:11:27;;;;;;;8.80;6.03;;;16.90;63.10;;;;;;5077182;28;20450;-80
2024/02/07 01:13:55;;;;;;;8.20;5.90;;;16.90;62.90;;;;;;5084129;28;20441;-79
2024/02/07 01:16:25;;;;;;;10.70;6.40;;;16.90;63.30;;;;;;5079889;28;20522;-79
2024/02/07 01:18:53;;;;;;;10.90;6.10;;;16.90;63.00;;;;;;5079996;28;20442;-79
2024/02/07 01:21:21;;;;;;;9.43;5.90;;;16.90;63.10;;;;;;5080855;28;20460;-79
2024/02/07 01:23:51;;;;;;;8.70;6.20;;;16.90;63.10;;;;;;5082917;28;20461;-78
2024/02/07 01:26:19;;;;;;;10.40;6.20;;;16.90;62.90;;;;;;5082866;28;20491;-79
2024/02/07 01:28:47;;;;;;;9.10;6.50;;;16.90;63.70;;;;;;5082342;28;20450;-79
2024/02/07 01:31:15;;;;;;;11.50;6.60;;;16.90;63.40;;;;;;5084048;28;20438;-80
2024/02/07 01:33:44;;;;;;;9.00;5.60;;;16.90;62.80;;;;;;5083119;28;21172;-79
2024/02/07 01:36:13;;;;;;;7.90;5.63;;;16.90;63.30;;;;;;5062818;28;20478;-78
2024/02/07 01:38:41;;;;;;;10.50;5.80;;;16.80;62.90;;;;;;5059373;28;21061;-78
2024/02/07 01:41:10;;;;;;;9.27;6.00;;;16.80;63.00;;;;;;5061926;28;20438;-79
2024/02/07 01:43:38;;;;;;;9.37;5.63;;;16.80;63.30;;;;;;5062354;28;20443;-80
2024/02/07 01:46:07;;;;;;;7.63;5.53;;;16.80;63.30;;;;;;5063790;28;20459;-79
2024/02/07 01:48:35;;;;;;;10.57;6.07;;;16.80;63.20;;;;;;5063846;28;20525;-80
2024/02/07 01:51:05;;;;;;;7.50;5.63;;;16.80;63.20;;;;;;5061880;28;20474;-78
2024/02/07 01:53:34;;;;;;;8.50;5.63;;;16.80;63.20;;;;;;5063095;28;20462;-78
2024/02/07 01:56:02;;;;;;;8.20;5.40;;;16.90;63.30;;;;;;5070643;28;20530;-79
2024/02/07 01:58:31;;;;;;;9.83;5.80;;;16.80;63.20;;;;;;5063911;28;20458;-78
2024/02/07 02:00:59;;;;;;;8.60;5.50;;;16.90;63.10;;;;;;5063945;28;20439;-79
2024/02/07 02:03:27;;;;;;;13.80;5.60;;;16.80;63.40;;;;;;5064523;28;20496;-79
2024/02/07 02:05:56;;;;;;;10.17;5.60;;;16.80;63.40;;;;;;5064702;28;20581;-79
2024/02/07 02:08:25;;;;;;;8.87;5.07;;;16.80;63.20;;;;;;5064344;28;20493;-79
2024/02/07 02:10:57;;;;;;;6.43;5.10;;;16.80;63.20;;;;;;5064050;28;20541;-79
2024/02/07 02:13:26;;;;;;;12.53;5.20;;;16.80;63.30;;;;;;5063792;28;20952;-79
2024/02/07 02:15:54;;;;;;;7.80;4.77;;;16.80;63.20;;;;;;5062523;28;20474;-79
2024/02/07 02:18:22;;;;;;;9.70;4.83;;;16.80;63.20;;;;;;5062269;28;20545;-78
2024/02/07 02:20:50;;;;;;;8.07;5.20;;;16.80;63.00;;;;;;5062319;28;20466;-79
2024/02/07 02:23:43;;;;;;;7.37;4.83;;;16.80;63.40;;;;;;5063984;28;20447;-80
2024/02/07 02:26:33;;;;;;;8.23;5.10;;;16.80;63.40;;;;;;5068227;28;20505;-79
2024/02/07 02:29:07;;;;;;;8.23;4.80;;;16.80;63.40;;;;;;5070559;28;20473;-78
2024/02/07 02:31:36;;;;;;;8.03;5.30;;;16.80;63.10;;;;;;5068662;28;20465;-79
2024/02/07 02:34:05;;;;;;;7.90;5.03;;;16.70;63.50;;;;;;5083053;28;20445;-79
2024/02/07 02:36:34;;;;;;;7.50;5.03;;;16.80;63.60;;;;;;5074731;28;20441;-78
2024/02/07 02:39:05;;;;;;;9.20;4.97;;;16.80;63.30;;;;;;5065923;28;20450;-79
2024/02/07 02:41:33;;;;;;;8.60;4.90;;;16.70;63.10;;;;;;5062454;28;20455;-79
2024/02/07 02:44:01;;;;;;;8.03;4.77;;;16.70;63.40;;;;;;5077014;28;20532;-79
2024/02/07 02:46:30;;;;;;;6.70;4.57;;;16.70;63.50;;;;;;5073454;28;20470;-79
2024/02/07 02:48:59;;;;;;;6.07;4.50;;;16.80;63.40;;;;;;5072145;28;20449;-79
2024/02/07 02:51:28;;;;;;;6.73;4.13;;;16.70;63.30;;;;;;5063697;28;21049;-78
2024/02/07 02:53:55;;;;;;;4.77;4.00;;;16.70;63.50;;;;;;5070813;28;20434;-79
2024/02/07 02:56:23;;;;;;;7.00;4.20;;;16.70;63.50;;;;;;5062854;28;20482;-79
2024/02/07 02:58:51;;;;;;;5.73;3.87;;;16.70;63.30;;;;;;5061257;28;20462;-79
2024/02/07 03:01:19;;;;;;;6.63;3.73;;;16.70;63.60;;;;;;5070142;28;20540;-79
2024/02/07 03:03:53;;;;;;;5.90;3.93;;;16.70;63.40;;;;;;5073487;28;20434;-79
2024/02/07 03:06:32;;;;;;;6.70;4.07;;;16.70;63.50;;;;;;5066808;28;20479;-78
2024/02/07 03:09:07;;;;;;;8.60;4.60;;;16.70;63.90;;;;;;5062773;28;20445;-78
2024/02/07 03:11:36;;;;;;;6.77;4.20;;;16.70;63.20;;;;;;5077142;28;20843;-79
2024/02/07 03:14:05;;;;;;;8.03;4.00;;;16.70;63.60;;;;;;5084198;28;20441;-79
2024/02/07 03:16:35;;;;;;;5.00;3.70;;;16.70;63.70;;;;;;5072144;28;20469;-79
2024/02/07 03:19:04;;;;;;;6.13;4.13;;;16.70;63.50;;;;;;5074157;28;20446;-77
2024/02/07 03:21:34;;;;;;;7.63;3.40;;;16.70;63.40;;;;;;5070184;28;20965;-78
2024/02/07 03:24:02;;;;;;;8.07;4.27;;;16.70;63.40;;;;;;5061981;28;20513;-79
2024/02/07 03:26:30;;;;;;;5.63;3.83;;;16.70;63.80;;;;;;5080711;28;20472;-78
2024/02/07 03:28:58;;;;;;;6.50;4.10;;;16.70;63.60;;;;;;5084115;28;20484;-79
2024/02/07 03:31:26;;;;;;;4.80;3.70;;;16.70;63.80;;;;;;5081476;28;20539;-79
2024/02/07 03:33:54;;;;;;;7.10;4.03;;;16.70;63.70;;;;;;5080626;28;20498;-78
2024/02/07 03:36:23;;;;;;;6.90;3.80;;;16.70;63.70;;;;;;5075364;28;20505;-78
2024/02/07 03:38:52;;;;;;;6.03;3.77;;;16.70;63.60;;;;;;5075241;28;20452;-78
2024/02/07 03:41:20;;;;;;;6.33;3.20;;;16.70;63.80;;;;;;5082288;28;20456;-79
2024/02/07 03:43:48;;;;;;;6.40;3.47;;;16.70;63.90;;;;;;5072369;28;20518;-79
2024/02/07 03:46:17;;;;;;;6.33;3.40;;;16.70;63.80;;;;;;5072538;28;20533;-78
2024/02/07 03:48:46;;;;;;;5.43;3.00;;;16.70;63.90;;;;;;5069783;28;20450;-78
2024/02/07 03:51:15;;;;;;;7.53;3.77;;;16.70;63.80;;;;;;5072952;28;20473;-78
2024/02/07 03:53:44;;;;;;;10.23;3.97;;;16.70;63.60;;;;;;5074644;28;20505;-78
2024/02/07 03:56:13;;;;;;;5.77;3.50;;;16.70;63.90;;;;;;5070772;28;20453;-78
2024/02/07 03:58:41;;;;;;;4.50;3.23;;;16.70;63.70;;;;;;5069475;28;20512;-78
2024/02/07 04:01:13;;;;;;;3.80;3.03;;;16.70;64.00;;;;;;5074226;28;20441;-78
2024/02/07 04:03:41;;;;;;;6.33;3.37;;;16.70;63.60;;;;;;5078073;28;20453;-78
2024/02/07 04:06:12;;;;;;;3.97;3.10;;;16.70;63.90;;;;;;5064421;28;20473;-78
2024/02/07 04:08:40;;;;;;;4.70;3.07;;;16.70;64.20;;;;;;5074486;28;20445;-79
2024/02/07 05:17:06;;;;;;;5.17;2.97;;;16.60;64.80;;;;;;5082148;28;20473;-80
2024/02/07 05:19:36;;;;;;;5.57;2.77;;;16.50;64.80;;;;;;5083529;28;20446;-80
2024/02/07 05:22:05;;;;;;;4.27;2.77;;;16.50;64.40;;;;;;5083004;28;20434;-82
2024/02/07 05:24:33;;;;;;;5.33;2.73;;;16.50;64.70;;;;;;5083287;28;20437;-80
2024/02/07 05:27:06;;;;;;;2.87;2.30;;;16.60;65.00;;;;;;5091110;28;20537;-81
2024/02/07 05:29:34;;;;;;;3.43;2.10;;;16.60;64.70;;;;;;5088604;28;20445;-81
2024/02/07 05:32:02;;;;;;;4.70;2.50;;;16.60;64.60;;;;;;5071508;28;20478;-82
2024/02/07 05:34:30;;;;;;;5.27;2.57;;;16.50;64.80;;;;;;5068570;28;20431;-80
2024/02/07 05:37:01;;;;;;;5.90;2.80;;;16.50;65.20;;;;;;5057000;28;20471;-80
2024/02/07 05:39:31;;;;;;;3.20;2.20;;;16.50;64.50;;;;;;5062511;28;20458;-82
2024/02/07 05:42:00;;;;;;;10.70;2.20;;;16.50;64.80;;;;;;5069027;28;20449;-80
2024/02/07 05:44:28;;;;;;;3.27;2.10;;;16.50;64.70;;;;;;5059152;28;20481;-79
2024/02/07 05:46:56;;;;;;;4.43;2.23;;;16.50;64.70;;;;;;5060715;28;20497;-80
2024/02/07 05:49:25;;;;;;;2.30;2.07;;;16.50;64.40;;;;;;5067293;28;20458;-80
2024/02/07 05:51:58;;;;;;;4.13;2.70;;;16.50;64.70;;;;;;5083383;28;20462;-80
2024/02/07 05:54:31;;;;;;;3.87;2.10;;;16.50;64.50;;;;;;5083375;28;20441;-80
2024/02/07 05:56:59;;;;;;;6.40;2.33;;;16.50;64.80;;;;;;5084826;28;20548;-80
2024/02/07 05:59:27;;;;;;;3.13;2.47;;;16.50;64.30;;;;;;5084369;28;20437;-80
2024/02/07 06:01:56;;;;;;;3.93;2.50;;;16.50;64.80;;;;;;5081937;28;20448;-82
2024/02/07 06:04:24;;;;;;;4.30;2.90;;;16.50;64.80;;;;;;5083604;28;20495;-82
2024/02/07 06:06:53;;;;;;;4.47;2.47;;;16.50;64.40;;;;;;5081561;28;20478;-81
2024/02/07 06:09:21;;;;;;;3.80;2.00;;;16.50;64.60;;;;;;5083479;28;20445;-79
2024/02/07 06:11:51;;;;;;;3.40;2.00;;;16.50;64.30;;;;;;5082955;28;21067;-80
2024/02/07 06:14:20;;;;;;;4.57;2.67;;;16.50;64.30;;;;;;5082923;28;20491;-79
2024/02/07 06:16:48;;;;;;;4.03;2.03;;;16.40;64.50;;;;;;5082502;28;20462;-81
2024/02/07 06:19:17;;;;;;;3.40;2.10;;;16.40;64.40;;;;;;5084093;28;20473;-80
2024/02/07 06:21:46;;;;;;;5.67;2.53;;;16.40;64.50;;;;;;5083015;28;20460;-79
2024/02/07 06:24:14;;;;;;;3.20;2.10;;;16.40;64.40;;;;;;5072385;28;20447;-79
2024/02/07 06:26:42;;;;;;;4.97;2.07;;;16.40;64.40;;;;;;5080243;28;20503;-79
2024/02/07 06:29:12;;;;;;;4.13;2.23;;;16.40;64.30;;;;;;5079202;28;20540;-80
2024/02/07 06:31:40;;;;;;;5.03;2.20;;;16.40;64.30;;;;;;5065891;28;20470;-80
2024/02/07 06:34:08;;;;;;;2.83;2.00;;;16.40;64.10;;;;;;5065151;28;20498;-80
2024/02/07 06:36:36;;;;;;;3.20;2.23;;;16.40;64.30;;;;;;5066563;28;20466;-80
2024/02/07 06:39:04;;;;;;;3.50;2.00;;;16.40;64.50;;;;;;5071777;28;20430;-80
2024/02/07 06:41:32;;;;;;;4.60;2.20;;;16.40;64.40;;;;;;5081853;28;20450;-83
2024/02/07 06:44:00;;;;;;;5.07;2.47;;;16.40;64.30;;;;;;5062187;28;20446;-81
2024/02/07 06:46:30;;;;;;;4.90;2.00;;;16.40;64.30;;;;;;5073199;28;20457;-79
2024/02/07 06:48:58;;;;;;;3.73;2.37;;;16.40;64.40;;;;;;5082479;28;20954;-80
2024/02/07 06:51:26;;;;;;;3.87;2.03;;;16.40;64.40;;;;;;5085592;28;20469;-78
2024/02/07 06:53:54;;;;;;;4.47;2.17;;;16.40;64.40;;;;;;5071282;28;20461;-78
2024/02/07 06:56:21;;;;;;;4.57;2.10;;;16.40;64.10;;;;;;5062581;28;20467;-80
2024/02/07 06:58:49;;;;;;;2.37;2.00;;;16.40;64.30;;;;;;5059823;28;20446;-79
2024/02/07 07:01:18;;;;;;;5.60;2.20;;;16.30;64.10;;;;;;5069166;28;20440;-79
2024/02/07 07:03:50;;;;;;;3.00;1.83;;;16.30;64.10;;;;;;5080073;28;20444;-80
2024/02/07 07:06:18;;;;;;;5.70;2.57;;;16.30;64.30;;;;;;5078834;28;20473;-79
2024/02/07 07:08:46;;;;;;;6.17;2.17;;;16.30;64.40;;;;;;5078923;28;20434;-81
2024/02/07 07:11:14;;;;;;;3.77;2.20;;;16.30;64.30;;;;;;5080584;28;20437;-79
2024/02/07 07:13:42;;;;;;;2.80;2.03;;;16.30;64.10;;;;;;5078642;28;20480;-81
2024/02/07 07:16:10;;;;;;;6.97;2.17;;;16.30;64.10;;;;;;5078851;28;20465;-79
2024/02/07 07:18:38;;;;;;;3.30;2.20;;;16.30;63.90;;;;;;5079114;28;20446;-79
2024/02/07 07:21:08;;;;;;;3.17;2.30;;;16.30;63.90;;;;;;5080236;28;20456;-81
2024/02/07 07:23:35;;;;;;;3.47;2.10;;;16.20;63.70;;;;;;5081292;28;20441;-80
2024/02/07 07:26:04;;;;;;;7.33;2.47;;;16.20;63.90;;;;;;5078447;28;20560;-78
2024/02/07 07:28:32;;;;;;;5.27;2.17;;;16.20;63.90;;;;;;5078646;28;20445;-78
2024/02/07 07:31:00;;;;;;;3.23;2.17;;;16.20;63.40;;;;;;5079998;28;20531;-80
2024/02/07 07:33:29;;;;;;;4.17;2.30;;;16.20;63.70;;;;;;5080507;28;20535;-81
2024/02/07 07:36:00;;;;;;;2.60;1.80;;;16.20;63.50;;;;;;5080008;28;20462;-81
2024/02/07 07:38:29;;;;;;;5.73;1.80;;;16.20;63.30;;;;;;5080977;28;20472;-80
2024/02/07 07:40:58;;;;;;;5.17;1.80;;;16.10;63.40;;;;;;5080072;28;20442;-79
2024/02/07 07:43:26;;;;;;;3.33;2.17;;;16.10;63.30;;;;;;5079994;28;20464;-78
2024/02/07 07:45:55;;;;;;;2.93;1.80;;;16.10;63.10;;;;;;5079941;28;20550;-80
2024/02/07 07:48:24;;;;;;;2.50;2.20;;;16.20;63.40;;;;;;5079932;28;20442;-79
2024/02/07 07:50:53;;;;;;;4.13;2.20;;;16.20;63.40;;;;;;5079921;28;20468;-80
2024/02/07 07:53:21;;;;;;;5.87;2.20;;;16.10;63.20;;;;;;5067322;28;20457;-79
2024/02/07 07:55:51;;;;;;;7.23;2.47;;;16.20;63.00;;;;;;5060486;28;20488;-80
2024/02/07 07:58:20;;;;;;;3.43;2.70;;;16.10;63.10;;;;;;5064289;28;20439;-81
2024/02/07 08:00:55;;;;;;;6.70;2.67;;;16.20;63.10;;;;;;5065495;28;20457;-78
2024/02/07 08:03:23;;;;;;;4.50;2.43;;;16.20;63.10;;;;;;5084486;28;20437;-80
2024/02/07 08:05:51;;;;;;;3.70;2.10;;;16.20;63.10;;;;;;5080407;28;20464;-76
2024/02/07 08:08:20;;;;;;;4.67;2.30;;;16.20;63.40;;;;;;5083520;28;20445;-80
2024/02/07 08:10:48;;;;;;;3.77;1.90;;;16.20;63.10;;;;;;5068265;28;20461;-80
2024/02/07 08:13:18;;;;;;;3.37;2.10;;;16.20;63.00;;;;;;5086009;28;20476;-80
2024/02/07 08:15:46;;;;;;;4.40;2.30;;;16.20;63.00;;;;;;5085979;28;20449;-81
2024/02/07 08:18:14;;;;;;;4.63;2.00;;;16.30;63.10;;;;;;5086716;28;20445;-78
2024/02/07 08:20:42;;;;;;;5.73;2.33;;;16.30;63.10;;;;;;5086349;28;20452;-81
2024/02/07 08:23:11;;;;;;;3.80;2.37;;;16.30;62.80;;;;;;5086711;28;20441;-81
2024/02/07 08:25:40;;;;;;;4.40;2.50;;;16.30;63.10;;;;;;5077514;28;20543;-79
2024/02/07 08:28:08;;;;;;;2.60;2.10;;;16.30;62.90;;;;;;5066783;28;20454;-82
2024/02/07 08:30:39;;;;;;;3.43;2.20;;;16.40;62.90;;;;;;5079455;28;20501;-80
2024/02/07 08:33:07;;;;;;;4.00;2.20;;;16.40;62.90;;;;;;5072559;28;20465;-80
2024/02/07 08:35:37;;;;;;;3.13;2.30;;;16.40;62.90;;;;;;5076298;28;20438;-80
2024/02/07 08:38:08;;;;;;;4.03;2.10;;;16.40;62.80;;;;;;5071417;28;20438;-82
2024/02/07 08:40:37;;;;;;;2.57;2.30;;;16.50;62.90;;;;;;5073793;28;20548;-81
2024/02/07 08:43:06;;;;;;;3.50;2.00;;;16.50;63.10;;;;;;5079909;28;20454;-78
2024/02/07 08:45:37;;;;;;;8.10;2.17;;;16.50;63.10;;;;;;5083428;28;20446;-79
2024/02/07 08:48:08;;;;;;;3.73;1.73;;;16.60;63.10;;;;;;5074109;28;20481;-80
2024/02/07 08:50:37;;;;;;;4.33;2.10;;;16.60;63.00;;;;;;5079534;28;20492;-80
2024/02/07 08:53:05;;;;;;;4.70;2.70;;;16.70;63.10;;;;;;5084251;28;20482;-80
2024/02/07 08:55:34;;;;;;;5.83;2.67;;;16.70;63.00;;;;;;5083544;28;20438;-85
2024/02/07 08:58:02;;;;;;;2.70;2.13;;;16.80;62.60;;;;;;5085226;28;20468;-81
2024/02/07 09:00:30;;;;;;;7.73;2.30;;;16.80;63.40;;;;;;5067414;28;20447;-80
2024/02/07 09:02:58;;;;;;;5.83;2.70;;;16.90;63.00;;;;;;5072425;28;20496;-80
2024/02/07 09:05:27;;;;;;;7.47;2.13;;;16.90;63.10;;;;;;5073888;28;20431;-80
2024/02/07 09:07:56;;;;;;;2.60;2.03;;;17.00;63.30;;;;;;5072465;28;20436;-80
2024/02/07 09:10:24;;;;;;;5.23;2.10;;;17.10;63.40;;;;;;5067601;28;20480;-79
2024/02/07 09:12:53;;;;;;;2.30;1.87;;;17.10;63.20;;;;;;5065072;28;20442;-79
2024/02/07 09:15:22;;;;;;;4.27;2.50;;;17.20;63.40;;;;;;5068177;28;20453;-82
2024/02/07 09:17:51;;;;;;;3.50;2.50;;;17.20;63.30;;;;;;5073411;28;20461;-77
2024/02/07 09:20:19;;;;;;;7.63;3.03;;;17.20;62.90;;;;;;5072852;28;20438;-77
2024/02/07 09:22:49;;;;;;;4.47;2.53;;;17.20;63.00;;;;;;5068782;28;20452;-78
2024/02/07 09:25:18;;;;;;;5.07;3.10;;;17.30;63.00;;;;;;5058853;28;20467;-79
2024/02/07 09:27:46;;;;;;;4.67;2.97;;;17.30;62.70;;;;;;5066480;28;20468;-77
2024/02/07 09:30:14;;;;;;;8.50;3.23;;;17.40;62.70;;;;;;5068566;28;20484;-78
2024/02/07 09:32:42;;;;;;;4.37;2.77;;;17.40;62.50;;;;;;5074416;28;20453;-79
2024/02/07 09:35:11;;;;;;;7.17;2.90;;;17.40;62.30;;;;;;5061259;28;20506;-80
2024/02/07 09:37:40;;;;;;;4.90;2.80;;;17.40;62.30;;;;;;5072063;28;20458;-79
2024/02/07 09:40:11;;;;;;;10.93;3.57;;;17.40;62.90;;;;;;5069621;28;20439;-76
2024/02/07 09:42:39;;;;;;;6.43;3.33;;;17.40;62.20;;;;;;5061382;28;20453;-77
2024/02/07 09:45:08;;;;;;;4.07;3.07;;;17.50;62.20;;;;;;5067588;28;20532;-76
2024/02/07 09:47:37;;;;;;;5.23;3.17;;;17.50;62.30;;;;;;5067558;28;20524;-78
2024/02/07 09:50:07;;;;;;;5.80;3.30;;;17.50;62.20;;;;;;5057563;28;20442;-79
2024/02/07 09:52:36;;;;;;;5.07;3.40;;;17.60;62.30;;;;;;5060611;28;20447;-78
2024/02/07 09:55:04;;;;;;;4.03;3.50;;;17.70;62.40;;;;;;5064074;28;20481;-78
2024/02/07 09:57:35;;;;;;;4.80;3.33;;;17.90;62.40;;;;;;5072362;28;20469;-80
2024/02/07 10:00:04;;;;;;;11.93;4.63;;;18.00;62.50;;;;;;5070564;28;20481;-78
2024/02/07 10:02:32;;;;;;;5.80;3.50;;;18.00;62.40;;;;;;5064296;28;20447;-77
2024/02/07 10:05:00;;;;;;;6.83;3.40;;;18.10;62.60;;;;;;5073290;28;20536;-78
2024/02/07 10:07:29;;;;;;;4.80;3.70;;;18.20;62.80;;;;;;5060336;28;20475;-77
2024/02/07 10:09:57;;;;;;;6.67;3.37;;;18.30;63.10;;;;;;5054683;28;20446;-81
2024/02/07 10:12:26;;;;;;;5.53;4.13;;;18.30;63.10;;;;;;5053015;28;20450;-77
2024/02/07 10:14:57;;;;;;;8.07;3.90;;;18.40;63.20;;;;;;5061132;28;20541;-78
2024/02/07 10:17:25;;;;;;;4.10;3.07;;;18.40;63.20;;;;;;5071522;28;20465;-79
2024/02/07 10:19:54;;;;;;;10.10;4.07;;;18.60;63.30;;;;;;5084822;28;20469;-80
2024/02/07 10:22:22;;;;;;;3.63;3.10;;;18.60;63.50;;;;;;5067043;28;20431;-80
2024/02/07 10:24:50;;;;;;;17.27;4.43;;;18.60;63.50;;;;;;5065668;28;20503;-77
2024/02/07 10:27:19;;;;;;;11.27;3.10;;;16.80;51.10;;;;;;5063915;28;20458;-78
2024/02/07 10:29:47;;;;;;;14.60;3.50;;;15.30;53.70;;;;;;5061567;28;20424;-75
2024/02/07 10:32:18;;;;;;;11.00;2.80;;;14.40;52.40;;;;;;5062069;28;20470;-76
2024/02/07 10:34:51;;;;;;;10.27;2.83;;;15.00;53.60;;;;;;5061083;28;20517;-77
2024/02/07 10:37:24;;;;;;;10.23;3.00;;;15.20;51.00;;;;;;5060330;28;20466;-76
2024/02/07 10:40:01;;;;;;;11.53;2.60;;;15.00;51.10;;;;;;5064566;28;20437;-75
2024/02/07 10:42:29;;;;;;;13.43;2.80;;;14.90;52.00;;;;;;5059964;28;20429;-77
2024/02/07 10:45:03;;;;;;;12.83;2.20;;;14.70;51.30;;;;;;5062205;28;20488;-76
2024/02/07 10:47:35;;;;;;;12.50;2.67;;;15.10;52.40;;;;;;5064991;28;20471;-76
2024/02/07 10:50:04;;;;;;;10.40;1.93;;;15.20;51.60;;;;;;5062577;28;20442;-76
2024/02/07 10:52:33;;;;;;;6.80;2.10;;;16.00;51.60;;;;;;5061495;28;20445;-75
2024/02/07 10:55:08;;;;;;;9.70;2.50;;;16.60;50.80;;;;;;5058757;28;20466;-79
2024/02/07 10:57:38;;;;;;;10.43;2.97;;;17.00;49.90;;;;;;5060864;28;20451;-77
2024/02/07 11:00:08;;;;;;;8.20;2.53;;;17.20;49.10;;;;;;5064560;28;20480;-77
2024/02/07 11:02:38;;;;;;;8.40;2.47;;;17.40;48.00;;;;;;5059908;28;20445;-76
2024/02/07 11:05:06;;;;;;;6.60;2.37;;;17.50;47.10;;;;;;5060979;28;20457;-77
2024/02/07 11:07:35;;;;;;;7.87;2.90;;;17.50;47.20;;;;;;5061778;28;20469;-77
2024/02/07 11:10:04;;;;;;;8.70;2.13;;;17.70;47.20;;;;;;5064419;28;20438;-77
2024/02/07 11:12:32;;;;;;;8.87;2.90;;;18.00;47.40;;;;;;5057019;28;20530;-77
2024/02/07 11:14:59;;;;;;;8.97;2.30;;;18.20;47.30;;;;;;5062500;28;20552;-77
2024/02/07 11:17:27;;;;;;;11.60;2.60;;;18.30;47.10;;;;;;5062737;28;20488;-78
2024/02/07 11:19:57;;;;;;;10.03;2.77;;;18.60;46.90;;;;;;5059353;28;20521;-75
2024/02/07 11:22:27;;;;;;;9.33;3.17;;;18.80;46.40;;;;;;5064442;28;20454;-77
2024/02/07 11:24:55;;;;;;;9.33;3.80;;;19.00;46.70;;;;;;5059819;28;20442;-76
2024/02/07 11:27:23;;;;;;;9.93;4.37;;;19.00;45.00;;;;;;5064089;28;20489;-75
2024/02/07 11:29:51;;;;;;;12.33;4.80;;;19.20;45.50;;;;;;5061601;28;20441;-77
2024/02/07 11:32:18;;;;;;;11.27;4.30;;;19.40;45.70;;;;;;5062449;28;20429;-76
2024/02/07 11:34:52;;;;;;;7.70;3.73;;;19.50;44.90;;;;;;5067598;28;20565;-76
2024/02/07 11:37:22;;;;;;;12.93;4.07;;;19.60;45.00;;;;;;5066225;28;20515;-76
2024/02/07 11:39:50;;;;;;;10.50;4.13;;;19.50;44.00;;;;;;5066395;28;20444;-76
2024/02/07 11:42:20;;;;;;;13.20;4.93;;;19.50;43.50;;;;;;5067473;28;20944;-75
2024/02/07 11:44:52;;;;;;;11.43;3.97;;;19.80;44.10;;;;;;5066451;28;20407;-75
2024/02/07 11:47:24;;;;;;;9.67;3.80;;;20.20;44.40;;;;;;5066073;28;20980;-76
2024/02/07 11:49:57;;;;;;;12.40;3.77;;;20.50;43.80;;;;;;5066543;28;20462;-75
2024/02/07 11:52:31;;;;;;;11.07;3.67;;;20.80;43.50;;;;;;5058628;28;20492;-75
2024/02/07 11:55:03;;;;;;;7.70;3.03;;;21.00;43.10;;;;;;5057270;28;20477;-75
2024/02/07 11:57:32;;;;;;;12.83;2.77;;;21.30;43.60;;;;;;5055248;28;20502;-75
2024/02/07 12:00:01;;;;;;;10.00;3.70;;;21.60;42.80;;;;;;5062635;28;21007;-75
2024/02/07 12:02:29;;;;;;;6.03;3.00;;;21.70;41.40;;;;;;5075392;28;20469;-76
2024/02/07 12:04:57;;;;;;;7.03;3.20;;;21.90;41.60;;;;;;5062998;28;20439;-75
2024/02/07 12:07:25;;;;;;;9.97;4.60;;;21.70;40.20;;;;;;5075376;28;20946;-76
2024/02/07 12:09:55;;;;;;;11.43;5.40;;;21.60;40.40;;;;;;5075836;28;20419;-75
2024/02/07 12:12:23;;;;;;;11.83;6.40;;;21.60;40.70;;;;;;5075680;28;20489;-76
2024/02/07 12:14:51;;;;;;;10.37;5.60;;;21.70;40.50;;;;;;5075422;28;20461;-76
2024/02/07 12:17:19;;;;;;;9.23;5.30;;;21.70;40.20;;;;;;5070155;28;20553;-75
2024/02/07 12:19:47;;;;;;;8.97;4.50;;;21.50;40.90;;;;;;5054816;28;20953;-77
2024/02/07 12:22:18;;;;;;;9.60;5.03;;;21.50;40.70;;;;;;5054887;28;20521;-76
2024/02/07 12:24:47;;;;;;;7.20;3.70;;;21.40;40.80;;;;;;5055605;28;20519;-76
2024/02/07 12:27:16;;;;;;;11.77;4.13;;;21.20;39.80;;;;;;5089763;28;20491;-76
2024/02/07 12:29:50;;;;;;;12.43;4.47;;;21.20;40.40;;;;;;5097169;28;20527;-75
2024/02/07 12:32:18;;;;;;;6.70;3.20;;;21.40;40.60;;;;;;5083516;28;20441;-76
2024/02/07 12:34:45;;;;;;;6.80;3.57;;;21.50;40.10;;;;;;5062921;28;20409;-76
2024/02/07 12:37:14;;;;;;;8.57;3.13;;;21.40;40.00;;;;;;5072243;28;20519;-76
2024/02/07 12:39:43;;;;;;;8.60;3.10;;;21.40;39.80;;;;;;5064434;28;20478;-76
2024/02/07 12:42:16;;;;;;;9.83;3.03;;;21.50;39.10;;;;;;5074246;28;20437;-76
2024/02/07 12:44:44;;;;;;;11.77;2.87;;;21.90;39.90;;;;;;5073416;28;20471;-77
2024/02/07 12:47:13;;;;;;;10.17;4.70;;;22.50;39.50;;;;;;5073851;28;20485;-76
2024/02/07 12:49:41;;;;;;;11.43;6.60;;;22.30;37.50;;;;;;5059975;28;20435;-76
2024/02/07 12:52:10;;;;;;;17.67;8.17;;;22.20;37.70;;;;;;5054437;28;20475;-76
2024/02/07 12:54:37;;;;;;;13.60;6.80;;;22.20;38.30;;;;;;5062064;28;20468;-76
2024/02/07 12:57:06;;;;;;;15.30;6.30;;;22.50;37.90;;;;;;5068800;28;20476;-77
2024/02/07 12:59:35;;;;;;;12.57;7.97;;;22.60;36.80;;;;;;5072984;28;20404;-76
2024/02/07 13:02:05;;;;;;;11.27;7.20;;;22.30;36.20;;;;;;5074627;28;20452;-76
2024/02/07 13:04:33;;;;;;;14.37;6.83;;;22.00;36.50;;;;;;5075565;28;20425;-76
2024/02/07 13:07:05;;;;;;;11.30;6.40;;;22.20;36.90;;;;;;5074817;28;20528;-77
2024/02/07 13:09:32;;;;;;;12.60;6.03;;;22.40;36.50;;;;;;5072652;28;20424;-76
2024/02/07 13:12:00;;;;;;;14.30;7.53;;;22.90;36.60;;;;;;5075040;28;20516;-77
2024/02/07 13:14:41;;;;;;;17.07;7.73;;;23.10;35.50;;;;;;5067307;28;20441;-77
2024/02/07 13:17:10;;;;;;;14.17;7.73;;;23.10;34.40;;;;;;5072086;28;20452;-77
2024/02/07 13:19:38;;;;;;;11.47;7.00;;;22.90;34.10;;;;;;5064566;28;20434;-77
2024/02/07 13:22:05;;;;;;;18.13;9.27;;;22.70;33.90;;;;;;5071414;28;20461;-77
2024/02/07 13:24:34;;;;;;;13.30;8.13;;;22.40;33.60;;;;;;5065864;28;20408;-77
2024/02/07 13:27:01;;;;;;;11.97;7.50;;;22.30;33.40;;;;;;5069805;28;20591;-76
2024/02/07 13:29:29;;;;;;;14.67;7.40;;;22.20;33.20;;;;;;5069701;28;20462;-76
2024/02/07 13:31:59;;;;;;;12.07;7.60;;;22.00;33.20;;;;;;5068680;28;20442;-75
2024/02/07 13:34:27;;;;;;;13.07;6.53;;;21.80;33.40;;;;;;5071634;28;20519;-76
2024/02/07 13:36:55;;;;;;;15.60;6.17;;;21.90;33.60;;;;;;5064639;28;20456;-76
2024/02/07 13:39:26;;;;;;;12.50;6.53;;;22.30;33.60;;;;;;5058680;28;20412;-76
2024/02/07 13:41:54;;;;;;;11.13;6.43;;;22.40;32.10;;;;;;5071848;28;20444;-75
2024/02/07 13:44:22;;;;;;;14.40;5.80;;;22.20;33.00;;;;;;5076511;28;20432;-76
2024/02/07 13:46:50;;;;;;;10.20;6.23;;;22.10;32.50;;;;;;5096524;28;20457;-76
2024/02/07 13:49:22;;;;;;;12.80;6.30;;;21.80;32.50;;;;;;5096987;28;20438;-76
2024/02/07 13:51:51;;;;;;;10.10;5.70;;;21.80;32.70;;;;;;5079197;28;20565;-74
2024/02/07 13:54:19;;;;;;;9.63;5.93;;;21.90;33.30;;;;;;5072360;28;20480;-75
2024/02/07 13:56:47;;;;;;;13.07;5.83;;;21.80;32.50;;;;;;5071453;28;21043;-75
2024/02/07 13:59:15;;;;;;;8.70;5.13;;;21.60;32.80;;;;;;5068428;28;20492;-75